createdAt,value
2023-05-01T00:00:07.383Z,66.28
2023-05-01T00:01:07.365Z,65.47
2023-05-01T00:02:07.340Z,65.88
2023-05-01T00:03:07.420Z,67.00
2023-05-01T00:04:07.558Z,66.08
2023-05-01T00:05:07.356Z,64.64
2023-05-01T00:06:07.349Z,65.33
2023-05-01T00:07:07.302Z,65.33
2023-05-01T00:08:07.283Z,64.82
2023-05-01T00:09:07.248Z,65.44
2023-05-01T00:10:07.259Z,64.41
2023-05-01T00:11:07.224Z,64.72
2023-05-01T00:12:07.232Z,65.95
2023-05-01T00:13:07.249Z,65.54
2023-05-01T00:14:07.224Z,65.74
2023-05-01T00:15:07.194Z,65.84
2023-05-01T00:16:07.216Z,65.64
2023-05-01T00:17:07.167Z,66.77
2023-05-01T00:18:07.218Z,67.28
2023-05-01T00:19:07.166Z,67.90
2023-05-01T00:20:07.156Z,67.08
2023-05-01T00:21:07.136Z,67.41
2023-05-01T00:22:07.142Z,65.47
2023-05-01T00:23:07.099Z,65.06
2023-05-01T00:24:07.109Z,65.67
2023-05-01T00:25:07.137Z,65.06
2023-05-01T00:26:07.091Z,64.64
2023-05-01T00:27:07.058Z,65.88
2023-05-01T00:28:07.066Z,65.67
2023-05-01T00:29:07.040Z,65.98
2023-05-01T00:30:07.039Z,66.42
2023-05-01T00:31:07.051Z,66.42
2023-05-01T00:32:07.102Z,67.65
2023-05-01T00:33:07.059Z,66.63
2023-05-01T00:34:07.029Z,65.50
2023-05-01T00:35:06.977Z,67.03
2023-05-01T00:36:06.983Z,68.06
2023-05-01T00:37:07.003Z,68.88
2023-05-01T00:38:06.959Z,68.48
2023-05-01T00:39:06.955Z,68.27
2023-05-01T00:40:06.950Z,68.57
2023-05-01T00:41:06.927Z,68.57
2023-05-01T00:42:06.923Z,69.74
2023-05-01T00:43:06.907Z,68.81
2023-05-01T00:44:06.907Z,69.53
2023-05-01T00:45:06.864Z,68.64
2023-05-01T00:46:06.942Z,70.39
2023-05-01T00:47:06.858Z,68.74
2023-05-01T00:48:06.899Z,69.36
2023-05-01T00:49:06.851Z,69.46
2023-05-01T00:50:06.851Z,68.02
2023-05-01T00:51:06.816Z,68.33
2023-05-01T00:52:06.821Z,68.71
2023-05-01T00:53:06.811Z,68.10
2023-05-01T00:54:06.798Z,68.19
2023-05-01T00:55:06.814Z,71.11
2023-05-01T00:56:06.778Z,69.05
2023-05-01T00:57:06.758Z,69.67
2023-05-01T00:58:06.772Z,69.26
2023-05-01T00:59:06.727Z,69.56
2023-05-01T01:00:06.749Z,69.15
2023-05-01T01:01:06.755Z,68.85
2023-05-01T01:02:06.722Z,68.61
2023-05-01T01:03:06.738Z,70.87
2023-05-01T01:04:06.728Z,70.25
2023-05-01T01:05:06.706Z,69.84
2023-05-01T01:06:06.691Z,70.25
2023-05-01T01:07:06.672Z,69.67
2023-05-01T01:08:06.651Z,69.15
2023-05-01T01:09:06.627Z,69.98
2023-05-01T01:10:06.670Z,70.08
2023-05-01T01:11:06.596Z,71.11
2023-05-01T01:12:06.640Z,72.06
2023-05-01T01:13:06.612Z,70.11
2023-05-01T01:14:06.590Z,69.70
2023-05-01T01:15:06.553Z,69.70
2023-05-01T01:16:06.594Z,68.33
2023-05-01T01:17:06.599Z,68.64
2023-05-01T01:18:06.587Z,67.92
2023-05-01T01:19:06.583Z,67.71
2023-05-01T01:20:06.551Z,68.46
2023-05-01T01:21:06.500Z,68.16
2023-05-01T01:22:06.502Z,68.98
2023-05-01T01:23:06.481Z,69.09
2023-05-01T01:24:06.504Z,68.67
2023-05-01T01:25:06.468Z,68.54
2023-05-01T01:26:06.466Z,67.92
2023-05-01T01:27:06.441Z,67.61
2023-05-01T01:28:06.452Z,67.71
2023-05-01T01:29:06.410Z,67.51
2023-05-01T01:30:06.435Z,66.69
2023-05-01T01:31:06.445Z,69.70
2023-05-01T01:32:06.398Z,68.37
2023-05-01T01:33:06.402Z,68.26
2023-05-01T01:34:06.390Z,67.65
2023-05-01T01:35:06.352Z,68.26
2023-05-01T01:36:06.370Z,69.09
2023-05-01T01:37:06.355Z,69.09
2023-05-01T01:38:06.345Z,69.80
2023-05-01T01:39:06.306Z,67.95
2023-05-01T01:40:06.426Z,67.85
2023-05-01T01:41:06.282Z,69.18
2023-05-01T01:42:06.320Z,71.48
2023-05-01T01:43:06.287Z,69.63
2023-05-01T01:44:06.277Z,70.90
2023-05-01T01:45:06.247Z,69.87
2023-05-01T01:46:06.265Z,72.13
2023-05-01T01:47:06.231Z,72.64
2023-05-01T01:48:06.262Z,70.90
2023-05-01T01:49:06.235Z,71.51
2023-05-01T01:50:06.209Z,71.41
2023-05-01T01:51:06.204Z,71.20
2023-05-01T01:52:06.205Z,74.74
2023-05-01T01:53:06.162Z,73.61
2023-05-01T01:54:06.186Z,73.13
2023-05-01T01:55:06.168Z,74.05
2023-05-01T01:56:06.163Z,74.88
2023-05-01T01:57:06.168Z,74.16
2023-05-01T01:58:06.129Z,72.78
2023-05-01T01:59:06.102Z,72.68
2023-05-01T02:00:06.133Z,74.95
2023-05-01T02:01:06.099Z,74.74
2023-05-01T02:02:06.165Z,73.19
2023-05-01T02:03:06.156Z,72.16
2023-05-01T02:04:06.124Z,72.16
2023-05-01T02:05:06.060Z,74.53
2023-05-01T02:06:06.109Z,73.74
2023-05-01T02:07:06.065Z,72.61
2023-05-01T02:08:06.043Z,73.43
2023-05-01T02:09:06.029Z,71.89
2023-05-01T02:10:06.038Z,72.61
2023-05-01T02:11:05.988Z,72.81
2023-05-01T02:12:05.988Z,72.71
2023-05-01T02:13:05.985Z,71.99
2023-05-01T02:14:05.966Z,72.75
2023-05-01T02:15:05.934Z,73.33
2023-05-01T02:16:05.961Z,76.42
2023-05-01T02:17:05.931Z,74.77
2023-05-01T02:18:05.961Z,72.92
2023-05-01T02:19:05.923Z,73.43
2023-05-01T02:20:05.921Z,75.70
2023-05-01T02:21:05.884Z,74.05
2023-05-01T02:22:05.896Z,73.95
2023-05-01T02:23:05.859Z,75.90
2023-05-01T02:24:05.879Z,75.32
2023-05-01T02:25:05.894Z,74.08
2023-05-01T02:26:05.844Z,75.22
2023-05-01T02:27:05.823Z,74.19
2023-05-01T02:28:05.840Z,75.18
2023-05-01T02:29:05.782Z,74.50
2023-05-01T02:30:05.818Z,73.88
2023-05-01T02:31:05.862Z,74.19
2023-05-01T02:32:05.850Z,74.40
2023-05-01T02:33:05.766Z,74.91
2023-05-01T02:34:05.762Z,75.01
2023-05-01T02:35:05.729Z,77.01
2023-05-01T02:36:05.760Z,76.49
2023-05-01T02:37:05.734Z,75.46
2023-05-01T02:38:05.727Z,75.26
2023-05-01T02:39:05.687Z,74.53
2023-05-01T02:40:05.704Z,74.84
2023-05-01T02:41:05.688Z,75.87
2023-05-01T02:42:05.680Z,75.77
2023-05-01T02:43:05.670Z,76.80
2023-05-01T02:44:05.653Z,76.08
2023-05-01T02:45:05.639Z,77.11
2023-05-01T02:46:05.696Z,76.18
2023-05-01T02:47:05.708Z,75.98
2023-05-01T02:48:05.679Z,76.80
2023-05-01T02:49:05.630Z,75.87
2023-05-01T02:50:05.601Z,76.29
2023-05-01T02:51:05.569Z,75.67
2023-05-01T02:52:05.576Z,76.21
2023-05-01T02:53:05.553Z,78.80
2023-05-01T02:54:05.553Z,77.87
2023-05-01T02:55:05.554Z,76.53
2023-05-01T02:56:05.554Z,78.38
2023-05-01T02:57:05.524Z,79.00
2023-05-01T02:58:05.509Z,80.04
2023-05-01T02:59:05.497Z,80.96
2023-05-01T03:00:05.464Z,80.04
2023-05-01T03:01:05.511Z,78.14
2023-05-01T03:02:05.448Z,78.66
2023-05-01T03:03:05.541Z,79.90
2023-05-01T03:04:05.503Z,77.52
2023-05-01T03:05:05.450Z,76.80
2023-05-01T03:06:05.435Z,76.39
2023-05-01T03:07:05.439Z,79.07
2023-05-01T03:08:05.399Z,78.66
2023-05-01T03:09:05.406Z,78.45
2023-05-01T03:10:05.368Z,77.73
2023-05-01T03:11:05.381Z,77.22
2023-05-01T03:12:05.345Z,77.56
2023-05-01T03:13:05.378Z,80.14
2023-05-01T03:14:05.404Z,80.04
2023-05-01T03:15:05.352Z,81.37
2023-05-01T03:16:05.326Z,78.49
2023-05-01T03:17:05.342Z,80.04
2023-05-01T03:18:05.364Z,78.28
2023-05-01T03:19:05.307Z,78.49
2023-05-01T03:20:05.368Z,77.56
2023-05-01T03:21:05.259Z,78.49
2023-05-01T03:22:05.268Z,80.14
2023-05-01T03:23:05.242Z,79.93
2023-05-01T03:24:05.239Z,79.21
2023-05-01T03:25:05.260Z,80.04
2023-05-01T03:26:05.254Z,78.18
2023-05-01T03:27:05.186Z,78.38
2023-05-01T03:28:05.200Z,77.87
2023-05-01T03:29:05.196Z,77.45
2023-05-01T03:30:05.216Z,79.62
2023-05-01T03:31:05.199Z,79.76
2023-05-01T03:32:05.205Z,80.69
2023-05-01T03:33:05.160Z,79.66
2023-05-01T03:34:05.133Z,81.10
2023-05-01T03:35:05.124Z,80.58
2023-05-01T03:36:05.115Z,81.21
2023-05-01T03:37:05.098Z,80.65
2023-05-01T03:38:05.105Z,80.44
2023-05-01T03:39:05.089Z,81.79
2023-05-01T03:40:05.076Z,81.58
2023-05-01T03:41:05.053Z,80.65
2023-05-01T03:42:05.051Z,81.07
2023-05-01T03:43:05.063Z,80.65
2023-05-01T03:44:05.037Z,79.31
2023-05-01T03:45:04.989Z,80.14
2023-05-01T03:46:05.052Z,80.44
2023-05-01T03:47:04.988Z,80.34
2023-05-01T03:48:05.036Z,79.52
2023-05-01T03:49:04.996Z,80.04
2023-05-01T03:50:04.983Z,80.76
2023-05-01T03:51:04.963Z,80.65
2023-05-01T03:52:04.946Z,80.96
2023-05-01T03:53:04.921Z,81.62
2023-05-01T03:54:04.942Z,80.79
2023-05-01T03:55:04.926Z,81.10
2023-05-01T03:56:04.913Z,81.00
2023-05-01T03:57:04.875Z,80.48
2023-05-01T03:58:04.893Z,81.31
2023-05-01T03:59:04.863Z,80.96
2023-05-01T04:00:04.869Z,80.55
2023-05-01T04:01:04.937Z,80.86
2023-05-01T04:02:04.885Z,82.10
2023-05-01T04:03:05.001Z,84.30
2023-05-01T04:04:04.918Z,83.58
2023-05-01T04:05:04.805Z,82.65
2023-05-01T04:06:04.839Z,82.34
2023-05-01T04:07:04.966Z,82.14
2023-05-01T04:08:04.788Z,82.96
2023-05-01T04:09:04.756Z,82.24
2023-05-01T04:10:04.894Z,81.00
2023-05-01T04:11:04.726Z,80.79
2023-05-01T04:12:04.743Z,81.41
2023-05-01T04:13:04.966Z,83.17
2023-05-01T04:14:04.737Z,82.86
2023-05-01T04:15:04.693Z,82.65
2023-05-01T04:16:04.749Z,83.83
2023-05-01T04:17:04.681Z,83.68
2023-05-01T04:18:04.726Z,84.41
2023-05-01T04:19:04.686Z,84.61
2023-05-01T04:20:04.666Z,84.61
2023-05-01T04:21:04.634Z,84.51
2023-05-01T04:22:04.639Z,81.93
2023-05-01T04:23:04.631Z,81.89
2023-05-01T04:24:04.629Z,83.64
2023-05-01T04:25:04.614Z,83.75
2023-05-01T04:26:04.607Z,81.03
2023-05-01T04:27:04.566Z,82.10
2023-05-01T04:28:04.580Z,84.43
2023-05-01T04:29:04.547Z,84.12
2023-05-01T04:30:04.629Z,83.33
2023-05-01T04:31:04.593Z,83.95
2023-05-01T04:32:04.688Z,82.57
2023-05-01T04:33:04.559Z,80.93
2023-05-01T04:34:04.523Z,81.23
2023-05-01T04:35:04.482Z,83.50
2023-05-01T04:36:04.503Z,83.75
2023-05-01T04:37:04.495Z,83.64
2023-05-01T04:38:04.488Z,82.10
2023-05-01T04:39:04.425Z,81.79
2023-05-01T04:40:04.576Z,81.79
2023-05-01T04:41:04.411Z,81.68
2023-05-01T04:42:04.435Z,82.40
2023-05-01T04:43:04.419Z,81.07
2023-05-01T04:44:04.403Z,81.99
2023-05-01T04:45:04.458Z,81.34
2023-05-01T04:46:04.382Z,83.19
2023-05-01T04:47:04.512Z,83.40
2023-05-01T04:48:04.411Z,79.90
2023-05-01T04:49:04.363Z,79.07
2023-05-01T04:50:04.365Z,79.38
2023-05-01T04:51:04.345Z,79.86
2023-05-01T04:52:04.314Z,80.37
2023-05-01T04:53:04.291Z,82.64
2023-05-01T04:54:04.304Z,82.60
2023-05-01T04:55:04.300Z,80.95
2023-05-01T04:56:04.283Z,80.95
2023-05-01T04:57:04.255Z,80.23
2023-05-01T04:58:04.259Z,79.41
2023-05-01T04:59:04.229Z,79.51
2023-05-01T05:00:04.252Z,77.04
2023-05-01T05:01:04.256Z,78.17
2023-05-01T05:02:04.331Z,76.93
2023-05-01T05:03:04.229Z,76.49
2023-05-01T05:04:04.329Z,75.25
2023-05-01T05:05:04.171Z,76.59
2023-05-01T05:06:04.214Z,77.58
2023-05-01T05:07:04.188Z,77.38
2023-05-01T05:08:04.182Z,76.86
2023-05-01T05:09:04.141Z,75.22
2023-05-01T05:10:04.154Z,74.40
2023-05-01T05:11:04.104Z,75.52
2023-05-01T05:12:04.126Z,76.97
2023-05-01T05:13:04.119Z,76.21
2023-05-01T05:14:04.092Z,76.21
2023-05-01T05:15:04.106Z,76.01
2023-05-01T05:16:04.078Z,75.59
2023-05-01T05:17:04.042Z,75.90
2023-05-01T05:18:04.113Z,76.83
2023-05-01T05:19:04.045Z,75.97
2023-05-01T05:20:04.031Z,74.84
2023-05-01T05:21:04.003Z,74.53
2023-05-01T05:22:04.020Z,75.15
2023-05-01T05:23:03.986Z,73.71
2023-05-01T05:24:03.995Z,75.21
2023-05-01T05:25:03.999Z,74.50
2023-05-01T05:26:03.974Z,72.24
2023-05-01T05:27:03.935Z,73.78
2023-05-01T05:28:03.968Z,73.16
2023-05-01T05:29:03.910Z,74.57
2023-05-01T05:30:03.935Z,74.98
2023-05-01T05:31:03.933Z,75.80
2023-05-01T05:32:03.996Z,73.74
2023-05-01T05:33:03.938Z,74.15
2023-05-01T05:34:03.937Z,72.92
2023-05-01T05:35:03.880Z,72.61
2023-05-01T05:36:03.903Z,75.29
2023-05-01T05:37:03.868Z,74.05
2023-05-01T05:38:03.852Z,74.40
2023-05-01T05:39:03.809Z,73.13
2023-05-01T05:40:03.850Z,73.02
2023-05-01T05:41:03.786Z,76.00
2023-05-01T05:42:03.804Z,73.95
2023-05-01T05:43:03.823Z,73.02
2023-05-01T05:44:03.781Z,73.23
2023-05-01T05:45:03.753Z,72.89
2023-05-01T05:46:03.780Z,72.10
2023-05-01T05:47:03.756Z,72.92
2023-05-01T05:48:03.804Z,72.27
2023-05-01T05:49:03.745Z,72.06
2023-05-01T05:50:03.728Z,71.21
2023-05-01T05:51:03.689Z,71.42
2023-05-01T05:52:03.714Z,69.47
2023-05-01T05:53:03.658Z,77.33
2023-05-01T05:54:03.680Z,71.28
2023-05-01T05:55:03.668Z,72.92
2023-05-01T05:56:03.656Z,72.10
2023-05-01T05:57:03.622Z,72.82
2023-05-01T05:58:03.638Z,70.53
2023-05-01T05:59:03.665Z,74.43
2023-05-01T06:00:03.619Z,73.10
2023-05-01T06:01:03.612Z,71.76
2023-05-01T06:02:03.614Z,70.02
2023-05-01T06:03:03.796Z,69.81
2023-05-01T06:04:03.600Z,72.44
2023-05-01T06:05:03.642Z,69.68
2023-05-01T06:06:03.774Z,71.42
2023-05-01T06:07:03.681Z,70.60
2023-05-01T06:08:03.538Z,73.61
2023-05-01T06:09:03.508Z,72.17
2023-05-01T06:10:03.509Z,70.84
2023-05-01T06:11:03.522Z,71.66
2023-05-01T06:12:03.501Z,74.73
2023-05-01T06:13:04.439Z,72.68
2023-05-01T06:14:03.482Z,72.38
2023-05-01T06:15:03.441Z,73.40
2023-05-01T06:16:03.541Z,73.98
2023-05-01T06:17:03.420Z,72.34
2023-05-01T06:18:03.658Z,73.88
2023-05-01T06:19:03.415Z,76.34
2023-05-01T06:20:03.417Z,72.96
2023-05-01T06:21:03.393Z,73.36
2023-05-01T06:22:03.401Z,76.95
2023-05-01T06:23:03.376Z,73.57
2023-05-01T06:24:03.392Z,72.86
2023-05-01T06:25:03.349Z,73.68
2023-05-01T06:26:03.356Z,72.96
2023-05-01T06:27:03.338Z,73.27
2023-05-01T06:28:03.323Z,73.06
2023-05-01T06:29:03.298Z,73.78
2023-05-01T06:30:03.308Z,73.57
2023-05-01T06:31:03.334Z,73.95
2023-05-01T06:32:03.286Z,73.64
2023-05-01T06:33:03.334Z,75.48
2023-05-01T06:34:03.281Z,74.46
2023-05-01T06:35:03.234Z,73.85
2023-05-01T06:36:03.244Z,74.43
2023-05-01T06:37:03.222Z,73.71
2023-05-01T06:38:03.227Z,72.99
2023-05-01T06:39:03.187Z,73.30
2023-05-01T06:40:03.205Z,72.78
2023-05-01T06:41:03.198Z,75.42
2023-05-01T06:42:03.190Z,72.69
2023-05-01T06:43:03.166Z,74.02
2023-05-01T06:44:03.168Z,72.86
2023-05-01T06:45:03.123Z,73.68
2023-05-01T06:46:03.134Z,72.52
2023-05-01T06:47:03.140Z,73.23
2023-05-01T06:48:03.144Z,74.63
2023-05-01T06:49:03.103Z,71.87
2023-05-01T06:50:05.197Z,74.02
2023-05-01T06:51:03.057Z,73.27
2023-05-01T06:52:03.082Z,74.29
2023-05-01T06:53:03.053Z,72.45
2023-05-01T06:54:03.104Z,72.82
2023-05-01T06:55:03.037Z,72.11
2023-05-01T06:56:03.028Z,69.96
2023-05-01T06:57:02.999Z,70.17
2023-05-01T06:58:09.768Z,67.38
2023-05-01T06:59:03.005Z,71.87
2023-05-01T07:00:02.988Z,70.75
2023-05-01T07:01:03.007Z,72.04
2023-05-01T07:02:03.019Z,69.79
2023-05-01T07:03:03.030Z,71.02
2023-05-01T07:04:02.943Z,71.39
2023-05-01T07:05:02.920Z,70.48
2023-05-01T07:06:02.950Z,69.35
2023-05-01T07:07:02.905Z,68.74
2023-05-01T07:08:02.908Z,70.27
2023-05-01T07:09:02.866Z,69.53
2023-05-01T07:10:02.925Z,68.81
2023-05-01T07:11:02.861Z,70.14
2023-05-01T07:12:02.852Z,69.83
2023-05-01T07:13:02.879Z,69.53
2023-05-01T07:14:02.817Z,74.73
2023-05-01T07:15:02.846Z,71.26
2023-05-01T07:16:02.864Z,70.85
2023-05-01T07:17:02.838Z,70.04
2023-05-01T07:18:03.006Z,72.99
2023-05-01T07:19:02.818Z,72.79
2023-05-01T07:20:02.793Z,70.41
2023-05-01T07:21:02.793Z,73.16
2023-05-01T07:22:02.747Z,74.18
2023-05-01T07:23:03.530Z,72.24
2023-05-01T07:24:02.707Z,70.89
2023-05-01T07:25:02.750Z,72.41
2023-05-01T07:26:02.687Z,70.78
2023-05-01T07:27:02.714Z,69.76
2023-05-01T07:28:02.667Z,68.65
2023-05-01T07:29:02.693Z,70.48
2023-05-01T07:30:02.659Z,71.77
2023-05-01T07:31:02.684Z,69.63
2023-05-01T07:32:02.681Z,73.80
2023-05-01T07:33:02.681Z,70.82
2023-05-01T07:34:02.598Z,72.96
2023-05-01T07:35:02.616Z,71.23
2023-05-01T07:36:02.580Z,71.33
2023-05-01T07:37:02.837Z,69.49
2023-05-01T07:38:02.568Z,68.65
2023-05-01T07:39:02.578Z,69.06
2023-05-01T07:40:02.542Z,69.97
2023-05-01T07:41:02.577Z,69.23
2023-05-01T07:42:02.536Z,72.08
2023-05-01T07:43:02.552Z,70.25
2023-05-01T07:44:02.522Z,68.92
2023-05-01T07:45:02.509Z,69.94
2023-05-01T07:46:02.505Z,70.25
2023-05-01T07:47:02.487Z,70.72
2023-05-01T07:48:02.508Z,69.30
2023-05-01T07:49:02.497Z,70.01
2023-05-01T07:50:02.457Z,68.59
2023-05-01T07:51:02.448Z,67.74
2023-05-01T07:52:02.420Z,68.25
2023-05-01T07:53:02.436Z,69.03
2023-05-01T07:54:02.400Z,67.61
2023-05-01T07:55:02.421Z,65.45
2023-05-01T07:56:02.387Z,67.75
2023-05-01T07:57:02.388Z,68.02
2023-05-01T07:58:02.388Z,67.21
2023-05-01T07:59:02.377Z,66.70
2023-05-01T08:00:02.328Z,67.38
2023-05-01T08:01:02.362Z,67.89
2023-05-01T08:02:02.364Z,71.50
2023-05-01T08:03:02.551Z,68.73
2023-05-01T08:04:02.474Z,64.96
2023-05-01T08:05:02.362Z,67.35
2023-05-01T08:06:02.298Z,66.14
2023-05-01T08:07:02.298Z,62.40
2023-05-01T08:08:02.259Z,64.90
2023-05-01T08:09:02.268Z,65.40
2023-05-01T08:10:02.571Z,64.09
2023-05-01T08:11:02.243Z,60.45
2023-05-01T08:12:02.199Z,62.04
2023-05-01T08:13:02.242Z,66.99
2023-05-01T08:14:02.176Z,64.46
2023-05-01T08:15:02.207Z,60.39
2023-05-01T08:16:02.273Z,63.90
2023-05-01T08:17:02.175Z,61.55
2023-05-01T08:18:02.233Z,62.25
2023-05-01T08:19:02.193Z,60.84
2023-05-01T08:20:02.140Z,60.36
2023-05-01T08:21:02.142Z,59.83
2023-05-01T08:22:02.108Z,62.65
2023-05-01T08:23:02.239Z,60.61
2023-05-01T08:24:02.097Z,57.21
2023-05-01T08:25:02.114Z,57.64
2023-05-01T08:26:02.075Z,60.69
2023-05-01T08:27:02.080Z,61.37
2023-05-01T08:28:02.068Z,59.45
2023-05-01T08:29:02.058Z,58.75
2023-05-01T08:30:02.052Z,64.81
2023-05-01T08:31:02.110Z,66.69
2023-05-01T08:32:02.083Z,61.04
2023-05-01T08:33:02.054Z,60.24
2023-05-01T08:34:01.972Z,55.41
2023-05-01T08:35:02.026Z,57.23
2023-05-01T08:36:01.997Z,56.43
2023-05-01T08:37:01.998Z,59.22
2023-05-01T08:38:01.930Z,59.22
2023-05-01T08:39:01.966Z,55.66
2023-05-01T08:40:01.934Z,62.49
2023-05-01T08:41:01.936Z,56.82
2023-05-01T08:42:01.898Z,55.59
2023-05-01T08:43:01.934Z,53.17
2023-05-01T08:44:01.878Z,53.27
2023-05-01T08:45:01.880Z,57.81
2023-05-01T08:46:01.854Z,55.39
2023-05-01T08:47:02.022Z,54.96
2023-05-01T08:48:01.968Z,52.42
2023-05-01T08:49:01.898Z,49.10
2023-05-01T08:50:01.839Z,48.64
2023-05-01T08:51:01.818Z,51.68
2023-05-01T08:52:01.811Z,49.97
2023-05-01T08:53:01.800Z,51.66
2023-05-01T08:54:01.767Z,54.73
2023-05-01T08:55:01.811Z,49.62
2023-05-01T08:56:01.737Z,49.82
2023-05-01T08:57:01.753Z,51.14
2023-05-01T08:58:01.729Z,49.70
2023-05-01T08:59:01.722Z,50.05
2023-05-01T09:00:01.719Z,51.92
2023-05-01T09:01:01.739Z,51.21
2023-05-01T09:02:01.793Z,49.76
2023-05-01T09:03:01.755Z,50.06
2023-05-01T09:04:01.718Z,49.84
2023-05-01T09:05:01.657Z,49.23
2023-05-01T09:06:01.651Z,48.53
2023-05-01T09:07:01.726Z,48.93
2023-05-01T09:08:01.611Z,48.51
2023-05-01T09:09:01.624Z,47.22
2023-05-01T09:10:01.599Z,46.07
2023-05-01T09:11:01.613Z,47.80
2023-05-01T09:12:01.564Z,43.39
2023-05-01T09:13:01.592Z,43.41
2023-05-01T09:14:01.559Z,45.43
2023-05-01T09:15:01.546Z,44.27
2023-05-01T09:16:01.617Z,47.72
2023-05-01T09:17:01.546Z,46.89
2023-05-01T09:18:03.600Z,43.57
2023-05-01T09:19:01.537Z,43.98
2023-05-01T09:20:01.514Z,48.17
2023-05-01T09:21:01.504Z,47.37
2023-05-01T09:22:01.452Z,44.13
2023-05-01T09:23:01.483Z,43.15
2023-05-01T09:24:01.436Z,42.29
2023-05-01T09:25:01.484Z,43.93
2023-05-01T09:26:01.441Z,41.61
2023-05-01T09:27:01.428Z,41.69
2023-05-01T09:28:01.396Z,39.54
2023-05-01T09:29:01.411Z,44.01
2023-05-01T09:30:01.373Z,44.35
2023-05-01T09:31:01.427Z,45.98
2023-05-01T09:32:01.411Z,45.98
2023-05-01T09:33:01.435Z,41.77
2023-05-01T09:34:01.347Z,43.38
2023-05-01T09:35:01.350Z,45.18
2023-05-01T09:36:01.340Z,44.58
2023-05-01T09:37:01.363Z,46.96
2023-05-01T09:38:01.294Z,46.06
2023-05-01T09:39:01.304Z,48.28
2023-05-01T09:40:01.279Z,46.03
2023-05-01T09:41:01.294Z,45.87
2023-05-01T09:42:01.250Z,50.53
2023-05-01T09:43:01.289Z,47.62
2023-05-01T09:44:01.248Z,47.74
2023-05-01T09:45:01.254Z,48.57
2023-05-01T09:46:01.272Z,49.80
2023-05-01T09:47:01.226Z,51.93
2023-05-01T09:48:01.224Z,53.07
2023-05-01T09:49:01.225Z,54.38
2023-05-01T09:50:01.178Z,55.29
2023-05-01T09:51:01.179Z,55.49
2023-05-01T09:52:01.149Z,54.48
2023-05-01T09:53:01.166Z,54.48
2023-05-01T09:54:01.139Z,54.79
2023-05-01T09:55:01.159Z,55.16
2023-05-01T09:56:01.104Z,54.55
2023-05-01T09:57:01.117Z,53.63
2023-05-01T09:58:01.103Z,53.83
2023-05-01T09:59:01.093Z,53.22
2023-05-01T10:00:01.069Z,53.75
2023-05-01T10:01:01.176Z,52.57
2023-05-01T10:02:01.072Z,51.19
2023-05-01T10:03:01.156Z,54.27
2023-05-01T10:04:01.083Z,55.32
2023-05-01T10:05:01.049Z,49.19
2023-05-01T10:06:01.018Z,51.97
2023-05-01T10:07:01.088Z,50.57
2023-05-01T10:08:01.083Z,47.27
2023-05-01T10:09:00.992Z,49.57
2023-05-01T10:10:01.941Z,50.37
2023-05-01T10:11:00.968Z,47.97
2023-05-01T10:12:00.953Z,50.35
2023-05-01T10:13:00.991Z,50.04
2023-05-01T10:14:00.913Z,48.10
2023-05-01T10:15:07.792Z,49.68
2023-05-01T10:16:00.918Z,46.58
2023-05-01T10:17:01.014Z,45.23
2023-05-01T10:18:00.911Z,44.59
2023-05-01T10:19:02.375Z,46.01
2023-05-01T10:20:00.866Z,53.12
2023-05-01T10:21:00.886Z,48.77
2023-05-01T10:22:00.843Z,47.65
2023-05-01T10:23:00.855Z,48.75
2023-05-01T10:24:00.812Z,47.42
2023-05-01T10:25:00.866Z,49.20
2023-05-01T10:26:01.414Z,47.80
2023-05-01T10:27:00.813Z,51.79
2023-05-01T10:28:00.786Z,46.01
2023-05-01T10:29:00.797Z,49.02
2023-05-01T10:30:00.753Z,52.52
2023-05-01T10:31:00.864Z,50.54
2023-05-01T10:32:00.832Z,49.65
2023-05-01T10:33:00.813Z,48.25
2023-05-01T10:34:00.710Z,50.24
2023-05-01T10:35:00.721Z,51.17
2023-05-01T10:36:00.691Z,48.50
2023-05-01T10:37:00.722Z,46.08
2023-05-01T10:38:00.678Z,42.83
2023-05-01T10:39:00.688Z,40.78
2023-05-01T10:40:00.646Z,43.84
2023-05-01T10:41:00.665Z,39.63
2023-05-01T10:42:00.624Z,40.90
2023-05-01T10:43:00.662Z,44.38
2023-05-01T10:44:00.624Z,47.54
2023-05-01T10:45:00.632Z,39.48
2023-05-01T10:46:00.641Z,42.25
2023-05-01T10:47:00.608Z,39.65
2023-05-01T10:48:00.602Z,39.63
2023-05-01T10:49:00.617Z,37.52
2023-05-01T10:50:00.535Z,42.99
2023-05-01T10:51:00.585Z,42.35
2023-05-01T10:52:00.528Z,37.79
2023-05-01T10:53:00.534Z,36.58
2023-05-01T10:54:00.496Z,40.76
2023-05-01T10:55:00.553Z,43.10
2023-05-01T10:56:00.490Z,39.37
2023-05-01T10:57:00.494Z,41.77
2023-05-01T10:58:00.461Z,44.18
2023-05-01T10:59:00.491Z,43.11
2023-05-01T11:00:00.442Z,42.31
2023-05-01T11:01:00.464Z,38.13
2023-05-01T11:02:00.486Z,36.85
2023-05-01T11:03:00.451Z,37.19
2023-05-01T11:04:00.417Z,41.97
2023-05-01T11:05:00.658Z,40.86
2023-05-01T11:06:01.084Z,42.73
2023-05-01T11:07:00.423Z,42.83
2023-05-01T11:08:00.355Z,40.54
2023-05-01T11:09:00.402Z,37.63
2023-05-01T11:10:00.334Z,39.92
2023-05-01T11:11:00.353Z,40.52
2023-05-01T11:12:00.315Z,40.04
2023-05-01T11:13:00.352Z,38.45
2023-05-01T11:14:00.303Z,38.37
2023-05-01T11:15:00.379Z,41.47
2023-05-01T11:16:00.312Z,39.48
2023-05-01T11:17:00.290Z,40.20
2023-05-01T11:18:00.296Z,42.59
2023-05-01T11:19:00.329Z,40.72
2023-05-01T11:20:00.231Z,37.42
2023-05-01T11:21:00.251Z,42.43
2023-05-01T11:22:00.211Z,44.33
2023-05-01T11:23:00.243Z,38.66
2023-05-01T11:24:00.192Z,37.48
2023-05-01T11:25:00.226Z,39.51
2023-05-01T11:26:00.178Z,38.53
2023-05-01T11:27:00.178Z,42.46
2023-05-01T11:28:00.176Z,40.75
2023-05-01T11:29:00.149Z,41.96
2023-05-01T11:30:00.174Z,41.93
2023-05-01T11:31:00.148Z,42.83
2023-05-01T11:32:00.215Z,41.52
2023-05-01T11:33:00.174Z,42.49
2023-05-01T11:34:00.234Z,47.37
2023-05-01T11:35:00.325Z,45.47
2023-05-01T11:36:00.121Z,50.54
2023-05-01T11:37:00.094Z,43.75
2023-05-01T11:38:00.069Z,41.44
2023-05-01T11:39:00.109Z,47.50
2023-05-01T11:40:00.088Z,45.21
2023-05-01T11:41:00.011Z,42.81
2023-05-01T11:42:00.041Z,46.43
2023-05-01T11:43:00.046Z,45.75
2023-05-01T11:44:00.005Z,42.05
2023-05-01T11:45:00.051Z,45.55
2023-05-01T11:46:00.029Z,39.69
2023-05-01T11:46:59.946Z,40.71
2023-05-01T11:48:02.150Z,45.43
2023-05-01T11:48:59.955Z,43.46
2023-05-01T11:49:59.944Z,42.85
2023-05-01T11:50:59.931Z,41.85
2023-05-01T11:51:59.925Z,48.57
2023-05-01T11:52:59.894Z,44.56
2023-05-01T11:53:59.895Z,47.14
2023-05-01T11:55:00.079Z,45.43
2023-05-01T11:55:59.886Z,44.13
2023-05-01T11:56:59.878Z,45.74
2023-05-01T11:57:59.868Z,44.64
2023-05-01T11:58:59.826Z,43.91
2023-05-01T11:59:59.868Z,41.91
2023-05-01T12:00:59.829Z,41.99
2023-05-01T12:01:59.861Z,44.39
2023-05-01T12:02:59.959Z,42.18
2023-05-01T12:03:59.870Z,39.87
2023-05-01T12:05:00.136Z,40.56
2023-05-01T12:05:59.800Z,45.31
2023-05-01T12:06:59.760Z,40.50
2023-05-01T12:07:59.781Z,39.40
2023-05-01T12:08:59.726Z,38.70
2023-05-01T12:09:59.735Z,39.30
2023-05-01T12:10:59.708Z,36.15
2023-05-01T12:11:59.795Z,37.70
2023-05-01T12:12:59.717Z,36.90
2023-05-01T12:13:59.709Z,37.31
2023-05-01T12:14:59.933Z,43.09
2023-05-01T12:15:59.693Z,44.07
2023-05-01T12:16:59.653Z,41.05
2023-05-01T12:17:59.748Z,40.72
2023-05-01T12:18:59.958Z,39.72
2023-05-01T12:19:59.632Z,39.62
2023-05-01T12:20:59.604Z,40.83
2023-05-01T12:21:59.611Z,39.76
2023-05-01T12:22:59.581Z,42.46
2023-05-01T12:23:59.591Z,38.18
2023-05-01T12:24:59.799Z,39.87
2023-05-01T12:25:59.572Z,41.77
2023-05-01T12:26:59.547Z,42.87
2023-05-01T12:27:59.551Z,42.77
2023-05-01T12:28:59.519Z,43.79
2023-05-01T12:29:59.522Z,41.39
2023-05-01T12:30:59.526Z,42.99
2023-05-01T12:31:59.552Z,40.09
2023-05-01T12:32:59.482Z,39.39
2023-05-01T12:33:59.482Z,40.00
2023-05-01T12:34:59.701Z,40.11
2023-05-01T12:35:59.463Z,38.21
2023-05-01T12:36:59.443Z,38.43
2023-05-01T12:37:59.444Z,38.83
2023-05-01T12:38:59.420Z,39.03
2023-05-01T12:39:59.425Z,43.63
2023-05-01T12:40:59.408Z,41.83
2023-05-01T12:41:59.410Z,37.27
2023-05-01T12:42:59.403Z,37.08
2023-05-01T12:43:59.383Z,41.93
2023-05-01T12:44:59.820Z,43.87
2023-05-01T12:45:59.398Z,38.35
2023-05-01T12:46:59.375Z,38.11
2023-05-01T12:47:59.398Z,35.63
2023-05-01T12:48:59.332Z,33.55
2023-05-01T12:49:59.530Z,36.34
2023-05-01T12:50:59.283Z,37.63
2023-05-01T12:51:59.314Z,39.56